Time;durP1;ratioP1;P1;durP2;ratioP2;P2;SDS_P1;SDS_P2;PMS_P1;PMS_P2;Temp;Humidity;BMP_temperature;BMP_pressure;BME280_temperature;BME280_humidity;BME280_pressure;Samples;Min_cycle;Max_cycle;Signal;HPM_P1;HPM_P2
2023/02/12 00:03:07;;;;;;;;;;;;;;;3.57;100.00;97487.41;10532906;28;1471;-75
2023/02/12 00:08:11;;;;;;;;;;;;;;;3.66;100.00;97496.06;10536489;28;1127;-75
2023/02/12 00:13:14;;;;;;;;;;;;;;;3.64;100.00;97485.63;10531629;28;1977;-75
2023/02/12 00:18:17;;;;;;;;;;;;;;;3.60;100.00;97484.34;10541340;28;1562;-75
2023/02/12 00:23:19;;;;;;;;;;;;;;;3.69;100.00;97487.72;10542932;28;1467;-76
2023/02/12 00:28:22;;;;;;;;;;;;;;;3.71;100.00;97491.84;10542759;28;1451;-75
2023/02/12 00:33:24;;;;;;;;;;;;;;;3.70;100.00;97478.75;10536883;28;1969;-77
2023/02/12 00:38:27;;;;;;;;;;;;;;;3.71;100.00;97485.72;10541642;28;1526;-77
2023/02/12 00:43:29;;;;;;;;;;;;;;;3.71;100.00;97491.03;10540965;28;1183;-74
2023/02/12 00:48:32;;;;;;;;;;;;;;;3.70;100.00;97479.56;10541421;28;1642;-76
2023/02/12 00:53:34;;;;;;;;;;;;;;;3.64;100.00;97487.47;10543753;28;1902;-76
2023/02/12 00:58:37;;;;;;;;;;;;;;;3.56;100.00;97492.88;10537996;28;1680;-76
2023/02/12 01:03:39;;;;;;;;;;;;;;;3.66;100.00;97493.41;10529614;28;1503;-76
2023/02/12 01:08:42;;;;;;;;;;;;;;;3.60;100.00;97487.00;10536014;28;1172;-76
2023/02/12 01:13:44;;;;;;;;;;;;;;;3.66;100.00;97490.75;10539416;28;1926;-75
2023/02/12 01:18:47;;;;;;;;;;;;;;;3.68;100.00;97486.88;10539489;28;1697;-76
2023/02/12 01:23:49;;;;;;;;;;;;;;;3.74;100.00;97470.19;10548888;28;1629;-77
2023/02/12 01:28:51;;;;;;;;;;;;;;;3.64;100.00;97484.81;10530523;28;1491;-75
2023/02/12 01:33:54;;;;;;;;;;;;;;;3.62;100.00;97495.63;10541630;28;1979;-76
2023/02/12 01:38:56;;;;;;;;;;;;;;;3.59;100.00;97503.97;10541682;28;1460;-75
2023/02/12 01:43:59;;;;;;;;;;;;;;;3.47;100.00;97500.16;10536913;28;1439;-75
2023/02/12 01:49:01;;;;;;;;;;;;;;;3.41;100.00;97495.59;10543154;28;1819;-75
2023/02/12 01:54:04;;;;;;;;;;;;;;;3.52;100.00;97492.44;10527998;28;1971;-75
2023/02/12 01:59:06;;;;;;;;;;;;;;;3.61;100.00;97490.50;10535058;28;1163;-75
2023/02/12 02:04:09;;;;;;;;;;;;;;;3.56;100.00;97487.56;10544066;28;1511;-75
2023/02/12 02:09:11;;;;;;;;;;;;;;;3.62;100.00;97490.28;10538597;28;1397;-75
2023/02/12 02:19:33;;;;;;;;;;;;;;;3.67;100.00;97468.47;10537073;28;1196;-77
2023/02/12 02:24:36;;;;;;;;;;;;;;;3.61;100.00;97478.00;10544936;28;1432;-74
2023/02/12 02:29:38;;;;;;;;;;;;;;;3.58;100.00;97483.72;10519676;28;2514;-75
2023/02/12 02:34:41;;;;;;;;;;;;;;;3.55;100.00;97472.63;10538869;28;1976;-76
2023/02/12 02:39:43;;;;;;;;;;;;;;;3.50;100.00;97462.56;10537272;28;1109;-75
2023/02/12 02:44:45;;;;;;;;;;;;;;;3.63;100.00;97462.72;10542734;28;1498;-74
2023/02/12 02:49:48;;;;;;;;;;;;;;;3.66;100.00;97458.84;10538059;28;1146;-76
2023/02/12 02:54:50;;;;;;;;;;;;;;;3.66;100.00;97458.84;10547379;28;1964;-78
2023/02/12 02:59:52;;;;;;;;;;;;;;;3.61;100.00;97464.72;10542063;28;1257;-77
2023/02/12 03:04:55;;;;;;;;;;;;;;;3.68;100.00;97476.25;10537717;28;1515;-75
2023/02/12 03:09:58;;;;;;;;;;;;;;;3.71;100.00;97480.38;10532919;28;1523;-73
2023/02/12 03:15:00;;;;;;;;;;;;;;;3.65;100.00;97484.63;10550848;28;1972;-75
2023/02/12 03:20:03;;;;;;;;;;;;;;;3.56;100.00;97477.75;10532755;28;1126;-76
2023/02/12 03:25:08;;;;;;;;;;;;;;;3.52;100.00;97487.94;10559667;27;1638;-76
2023/02/12 03:30:10;;;;;;;;;;;;;;;3.45;100.00;97491.56;10527316;28;1470;-75
2023/02/12 03:35:13;;;;;;;;;;;;;;;3.53;100.00;97500.22;10535167;28;1909;-75
2023/02/12 03:40:15;;;;;;;;;;;;;;;3.56;100.00;97491.03;10535612;28;1431;-75
2023/02/12 03:45:18;;;;;;;;;;;;;;;3.44;100.00;97493.38;10535623;28;1428;-75
2023/02/12 03:50:20;;;;;;;;;;;;;;;3.59;100.00;97488.03;10536269;28;1272;-75
2023/02/12 03:55:22;;;;;;;;;;;;;;;3.63;100.00;97488.50;10535593;28;1902;-75
2023/02/12 04:00:24;;;;;;;;;;;;;;;3.48;100.00;97496.47;10540939;28;1217;-76
2023/02/12 04:05:27;;;;;;;;;;;;;;;3.56;100.00;97504.34;10529864;28;1567;-76
2023/02/12 04:10:29;;;;;;;;;;;;;;;3.44;100.00;97511.19;10536902;28;1511;-74
2023/02/12 04:15:32;;;;;;;;;;;;;;;3.53;100.00;97507.38;10537968;28;1972;-74
2023/02/12 04:20:34;;;;;;;;;;;;;;;3.46;100.00;97515.28;10529040;28;1868;-76
2023/02/12 04:25:37;;;;;;;;;;;;;;;3.50;100.00;97511.25;10522220;28;1954;-75
2023/02/12 04:30:39;;;;;;;;;;;;;;;3.55;100.00;97523.97;10534809;28;2050;-76
2023/02/12 04:35:42;;;;;;;;;;;;;;;3.52;100.00;97527.00;10525688;28;2029;-76
2023/02/12 04:40:44;;;;;;;;;;;;;;;3.47;100.00;97521.44;10518992;28;2128;-74
2023/02/12 04:45:47;;;;;;;;;;;;;;;3.51;100.00;97538.66;10523597;28;2121;-74
2023/02/12 04:50:49;;;;;;;;;;;;;;;3.50;100.00;97531.72;10536914;28;1686;-74
2023/02/12 04:55:51;;;;;;;;;;;;;;;3.46;100.00;97530.41;10532112;28;1912;-75
2023/02/12 05:00:54;;;;;;;;;;;;;;;3.41;100.00;97535.47;10535352;28;1478;-75
2023/02/12 05:05:56;;;;;;;;;;;;;;;3.40;100.00;97536.47;10540538;28;1263;-76
2023/02/12 05:10:59;;;;;;;;;;;;;;;3.42;100.00;97540.59;10538552;28;1456;-74
2023/02/12 05:16:02;;;;;;;;;;;;;;;3.46;100.00;97543.72;10534972;28;1993;-76
2023/02/12 05:21:04;;;;;;;;;;;;;;;3.49;100.00;97543.31;10524728;28;1796;-75
2023/02/12 05:26:06;;;;;;;;;;;;;;;3.41;100.00;97548.75;10527725;28;1439;-76
2023/02/12 05:31:09;;;;;;;;;;;;;;;3.44;100.00;97559.03;10530777;28;1182;-74
2023/02/12 05:36:11;;;;;;;;;;;;;;;3.41;100.00;97567.34;10533458;28;1914;-75
2023/02/12 05:41:14;;;;;;;;;;;;;;;3.35;100.00;97571.56;10535723;28;1209;-74
2023/02/12 05:46:16;;;;;;;;;;;;;;;3.32;100.00;97571.13;10538824;28;1527;-75
2023/02/12 05:51:18;;;;;;;;;;;;;;;3.18;100.00;97570.94;10540151;28;1160;-76
2023/02/12 05:56:21;;;;;;;;;;;;;;;2.96;100.00;97577.16;10534187;28;1981;-75
2023/02/12 06:01:23;;;;;;;;;;;;;;;2.98;100.00;97577.78;10537424;28;1503;-76
2023/02/12 06:06:26;;;;;;;;;;;;;;;2.92;100.00;97591.78;10560120;28;1338;-75
2023/02/12 06:11:28;;;;;;;;;;;;;;;2.95;100.00;97583.47;10544007;28;1448;-75
2023/02/12 06:16:30;;;;;;;;;;;;;;;2.89;100.00;97592.97;10536917;28;1914;-76
2023/02/12 06:21:33;;;;;;;;;;;;;;;2.79;100.00;97597.72;10554349;28;1663;-76
2023/02/12 06:26:35;;;;;;;;;;;;;;;2.85;100.00;97601.50;10537578;28;1325;-75
2023/02/12 06:31:38;;;;;;;;;;;;;;;2.79;100.00;97607.50;10532640;28;1558;-77
2023/02/12 06:36:40;;;;;;;;;;;;;;;2.83;100.00;97619.44;10548008;28;1906;-78
2023/02/12 06:41:42;;;;;;;;;;;;;;;2.88;100.00;97614.44;10548145;28;1165;-75
2023/02/12 06:46:45;;;;;;;;;;;;;;;2.83;100.00;97627.41;10542152;28;1472;-76
2023/02/12 06:51:47;;;;;;;;;;;;;;;2.97;100.00;97629.28;10545422;28;1163;-75
2023/02/12 06:56:49;;;;;;;;;;;;;;;3.08;100.00;97628.00;10533128;28;1977;-75
2023/02/12 07:01:52;;;;;;;;;;;;;;;3.14;100.00;97625.47;10523823;28;1384;-76
2023/02/12 07:06:54;;;;;;;;;;;;;;;3.32;100.00;97624.28;10529231;28;1947;-75
2023/02/12 07:11:56;;;;;;;;;;;;;;;3.43;100.00;97621.16;10530843;28;1780;-76
2023/02/12 07:17:02;;;;;;;;;;;;;;;3.47;100.00;97620.63;10534761;28;1988;-77
2023/02/12 07:22:04;;;;;;;;;;;;;;;3.55;100.00;97619.69;10529129;28;1701;-75
2023/02/12 07:27:07;;;;;;;;;;;;;;;3.69;100.00;97624.19;10543053;28;1392;-75
2023/02/12 07:32:09;;;;;;;;;;;;;;;4.03;100.00;97612.94;10532612;28;1116;-74
2023/02/12 07:37:12;;;;;;;;;;;;;;;4.20;100.00;97600.25;10532714;28;1913;-74
2023/02/12 07:42:14;;;;;;;;;;;;;;;4.04;100.00;97600.47;10532680;28;1243;-76
2023/02/12 07:47:16;;;;;;;;;;;;;;;4.21;100.00;97601.06;10523931;28;1515;-76
2023/02/12 07:52:19;;;;;;;;;;;;;;;4.55;100.00;97597.72;10534592;28;1169;-75
2023/02/12 07:57:21;;;;;;;;;;;;;;;4.64;100.00;97601.88;10543823;28;1910;-76
2023/02/12 08:02:24;;;;;;;;;;;;;;;4.57;100.00;97603.66;10532842;28;1403;-75
2023/02/12 08:07:27;;;;;;;;;;;;;;;4.82;100.00;97596.91;10534397;28;930;-74
2023/02/12 08:12:29;;;;;;;;;;;;;;;4.75;100.00;97597.88;10532037;28;1415;-76
2023/02/12 08:17:31;;;;;;;;;;;;;;;4.97;100.00;97590.69;10542277;28;1918;-75
2023/02/12 08:22:34;;;;;;;;;;;;;;;4.87;100.00;97589.19;10532044;28;1709;-76
2023/02/12 08:27:36;;;;;;;;;;;;;;;5.00;100.00;97595.63;10544686;28;1638;-75
2023/02/12 08:32:38;;;;;;;;;;;;;;;5.12;100.00;97591.41;10534941;28;1408;-76
2023/02/12 08:37:41;;;;;;;;;;;;;;;5.19;100.00;97586.94;10536354;28;1902;-74
2023/02/12 08:42:43;;;;;;;;;;;;;;;5.36;100.00;97582.97;10535813;28;1179;-76
2023/02/12 08:47:45;;;;;;;;;;;;;;;5.42;100.00;97584.84;10541530;28;1464;-76
2023/02/12 08:52:48;;;;;;;;;;;;;;;5.74;100.00;97579.88;10531816;28;1452;-76
2023/02/12 08:57:52;;;;;;;;;;;;;;;5.46;100.00;97576.44;10535441;28;1910;-77
2023/02/12 09:02:54;;;;;;;;;;;;;;;5.84;100.00;97574.97;10534020;28;1423;-77
2023/02/12 09:07:56;;;;;;;;;;;;;;;6.14;100.00;97575.53;10541738;28;1155;-76
2023/02/12 09:12:59;;;;;;;;;;;;;;;6.03;100.00;97575.28;10522369;28;1455;-75
2023/02/12 09:18:02;;;;;;;;;;;;;;;6.17;100.00;97579.63;10546559;28;2001;-75
2023/02/12 09:23:05;;;;;;;;;;;;;;;6.00;100.00;97592.53;10542805;28;1675;-74
2023/02/12 09:28:08;;;;;;;;;;;;;;;6.10;100.00;97589.47;10553871;28;1128;-78
2023/02/12 09:33:10;;;;;;;;;;;;;;;6.10;100.00;97592.97;10531555;28;1839;-76
2023/02/12 09:38:12;;;;;;;;;;;;;;;6.43;100.00;97590.41;10538185;28;1922;-76
2023/02/12 09:43:16;;;;;;;;;;;;;;;6.64;100.00;97588.56;10528012;28;2087;-78
2023/02/12 09:48:19;;;;;;;;;;;;;;;6.17;100.00;97590.31;10534168;28;1924;-78
2023/02/12 09:53:21;;;;;;;;;;;;;;;6.99;100.00;97591.84;10530628;28;2124;-76
2023/02/12 09:58:23;;;;;;;;;;;;;;;7.26;100.00;97574.78;10537626;28;1989;-76
2023/02/12 10:03:27;;;;;;;;;;;;;;;7.41;100.00;97579.88;10527881;28;1994;-78
2023/02/12 10:08:29;;;;;;;;;;;;;;;6.80;100.00;97590.81;10538450;28;1986;-76
2023/02/12 10:13:34;;;;;;;;;;;;;;;6.65;100.00;97587.53;10544224;28;1467;-75
2023/02/12 10:18:36;;;;;;;;;;;;;;;6.68;100.00;97587.13;10537367;28;1910;-75
2023/02/12 10:23:38;;;;;;;;;;;;;;;6.94;100.00;97592.50;10528496;28;1627;-76
2023/02/12 10:28:41;;;;;;;;;;;;;;;6.84;100.00;97591.25;10530687;28;1187;-75
2023/02/12 10:33:43;;;;;;;;;;;;;;;6.78;100.00;97591.03;10528892;28;1412;-75
2023/02/12 10:38:46;;;;;;;;;;;;;;;6.71;100.00;97597.41;10539634;28;1921;-75
2023/02/12 10:43:48;;;;;;;;;;;;;;;6.70;100.00;97590.44;10523695;28;1471;-75
2023/02/12 10:48:52;;;;;;;;;;;;;;;6.53;100.00;97595.31;10535526;28;1567;-75
2023/02/12 10:53:55;;;;;;;;;;;;;;;6.46;100.00;97602.50;10536629;28;1408;-76
2023/02/12 10:58:58;;;;;;;;;;;;;;;6.56;100.00;97589.59;10518165;28;1985;-75
2023/02/12 11:04:00;;;;;;;;;;;;;;;6.98;100.00;97592.88;10534787;28;1507;-74
2023/02/12 11:09:03;;;;;;;;;;;;;;;6.88;100.00;97587.97;10535751;28;1243;-76
2023/02/12 11:14:06;;;;;;;;;;;;;;;6.89;100.00;97584.25;10531371;28;1673;-74
2023/02/12 11:19:08;;;;;;;;;;;;;;;7.10;100.00;97571.69;10531624;28;1942;-75
2023/02/12 11:24:10;;;;;;;;;;;;;;;7.46;100.00;97568.56;10507542;28;1711;-77
2023/02/12 11:29:13;;;;;;;;;;;;;;;7.45;100.00;97565.06;10536139;28;1265;-75
2023/02/12 11:34:15;;;;;;;;;;;;;;;7.65;100.00;97556.97;10534230;28;1445;-75
2023/02/12 11:39:18;;;;;;;;;;;;;;;7.30;100.00;97564.47;10529639;28;1905;-78
2023/02/12 11:44:20;;;;;;;;;;;;;;;6.90;100.00;97564.50;10544453;28;1677;-75
2023/02/12 11:49:22;;;;;;;;;;;;;;;6.78;100.00;97560.81;10546688;28;1171;-75
2023/02/12 11:54:25;;;;;;;;;;;;;;;6.66;100.00;97559.78;10534546;28;1432;-75
2023/02/12 11:59:27;;;;;;;;;;;;;;;6.30;100.00;97552.97;10522022;28;1898;-75
2023/02/12 12:04:30;;;;;;;;;;;;;;;6.30;100.00;97562.81;10532174;28;1503;-76
2023/02/12 12:09:33;;;;;;;;;;;;;;;6.28;100.00;97546.19;10523669;28;1876;-78
2023/02/12 12:19:51;;;;;;;;;;;;;;;6.48;100.00;97547.84;10523898;28;1550;-76
2023/02/12 12:19:58;;;;;;;;;;;;;;;6.76;100.00;97539.66;10511884;28;1918;-75
2023/02/12 12:25:00;;;;;;;;;;;;;;;7.01;100.00;97520.31;10536325;28;1428;-74
2023/02/12 12:30:05;;;;;;;;;;;;;;;7.55;100.00;97519.94;10538070;28;1179;-76
2023/02/12 12:35:08;;;;;;;;;;;;;;;8.32;100.00;97512.72;10533994;28;1491;-77
2023/02/12 12:40:10;;;;;;;;;;;;;;;8.25;100.00;97514.63;10533600;28;1989;-75
2023/02/12 12:45:12;;;;;;;;;;;;;;;8.15;100.00;97518.84;10529028;28;1444;-74
2023/02/12 12:50:15;;;;;;;;;;;;;;;7.73;100.00;97518.44;10537285;28;1179;-75
2023/02/12 12:55:17;;;;;;;;;;;;;;;7.44;100.00;97515.22;10533860;28;1475;-74
2023/02/12 13:00:19;;;;;;;;;;;;;;;7.34;100.00;97514.88;10531524;28;1968;-79
2023/02/12 13:05:24;;;;;;;;;;;;;;;7.26;100.00;97515.09;10528531;28;1431;-74
2023/02/12 13:10:26;;;;;;;;;;;;;;;7.26;100.00;97515.09;10533122;28;1247;-77
2023/02/12 13:15:29;;;;;;;;;;;;;;;7.02;100.00;97514.72;10525191;28;1792;-75
2023/02/12 13:20:31;;;;;;;;;;;;;;;7.21;100.00;97504.22;10536553;28;1922;-75
2023/02/12 13:25:33;;;;;;;;;;;;;;;7.39;100.00;97501.69;10522106;28;1447;-75
2023/02/12 13:30:36;;;;;;;;;;;;;;;7.29;100.00;97503.97;10543312;28;1092;-75
2023/02/12 13:35:38;;;;;;;;;;;;;;;7.64;100.00;97506.34;10526757;28;1806;-76
2023/02/12 13:40:40;;;;;;;;;;;;;;;7.13;100.00;97501.78;10523279;28;1958;-76
2023/02/12 13:45:43;;;;;;;;;;;;;;;7.38;100.00;97499.19;10517371;28;1939;-75
2023/02/12 13:50:46;;;;;;;;;;;;;;;7.56;100.00;97494.81;10535921;28;2001;-77
2023/02/12 13:55:48;;;;;;;;;;;;;;;7.25;100.00;97502.75;10520292;28;1962;-76
2023/02/12 14:00:50;;;;;;;;;;;;;;;6.91;100.00;97496.66;10525421;28;2006;-76
2023/02/12 14:05:52;;;;;;;;;;;;;;;6.29;100.00;97497.88;10529613;28;2096;-75
2023/02/12 14:10:55;;;;;;;;;;;;;;;6.40;100.00;97501.81;10531350;28;1985;-76
2023/02/12 14:15:58;;;;;;;;;;;;;;;6.33;100.00;97499.13;10527456;28;1946;-76
2023/02/12 14:21:01;;;;;;;;;;;;;;;6.25;100.00;97502.00;10533734;28;1918;-76
2023/02/12 14:26:03;;;;;;;;;;;;;;;6.30;100.00;97504.91;10527393;28;2015;-75
2023/02/12 14:31:06;;;;;;;;;;;;;;;6.15;100.00;97513.06;10524047;28;2034;-76
2023/02/12 14:36:08;;;;;;;;;;;;;;;6.04;100.00;97508.31;10521587;28;2090;-75
2023/02/12 14:41:32;;;;;;;;;;;;;;;6.04;100.00;97500.31;10526828;28;1971;-75
2023/02/12 14:46:33;;;;;;;;;;;;;;;5.85;100.00;97507.25;10522298;28;1989;-76
2023/02/12 14:51:35;;;;;;;;;;;;;;;5.77;100.00;97504.75;10523217;28;2018;-74
2023/02/12 14:56:37;;;;;;;;;;;;;;;5.74;100.00;97513.16;10533150;28;1976;-73
2023/02/12 15:01:40;;;;;;;;;;;;;;;5.73;100.00;97511.53;10534315;28;2071;-76
2023/02/12 15:06:42;;;;;;;;;;;;;;;5.69;100.00;97508.41;10522988;28;2091;-74
2023/02/12 15:11:44;;;;;;;;;;;;;;;5.69;100.00;97504.94;10523263;28;1987;-74
2023/02/12 15:16:47;;;;;;;;;;;;;;;5.63;100.00;97498.53;10520072;28;1973;-74
2023/02/12 15:21:49;;;;;;;;;;;;;;;5.63;100.00;97497.72;10512446;28;2111;-75
2023/02/12 15:26:51;;;;;;;;;;;;;;;5.51;100.00;97494.81;10521788;28;1919;-73
2023/02/12 15:31:54;;;;;;;;;;;;;;;5.46;100.00;97488.41;10521304;28;2162;-74
2023/02/12 15:36:56;;;;;;;;;;;;;;;5.43;100.00;97493.13;10519647;28;1963;-75
2023/02/12 15:41:58;;;;;;;;;;;;;;;5.22;100.00;97501.25;10524430;28;2088;-75
2023/02/12 15:47:01;;;;;;;;;;;;;;;5.11;100.00;97488.47;10504948;28;2088;-75
2023/02/12 15:52:03;;;;;;;;;;;;;;;5.06;100.00;97496.22;10513315;28;2104;-74
2023/02/12 15:57:05;;;;;;;;;;;;;;;4.99;100.00;97485.53;10521598;28;2085;-74
2023/02/12 16:02:08;;;;;;;;;;;;;;;4.83;100.00;97491.97;10519392;28;2141;-75
2023/02/12 16:07:10;;;;;;;;;;;;;;;4.75;100.00;97494.81;10521301;28;2057;-74
2023/02/12 16:12:12;;;;;;;;;;;;;;;4.64;100.00;97492.66;10527534;28;1977;-75
2023/02/12 16:17:15;;;;;;;;;;;;;;;4.58;100.00;97488.13;10519327;28;2022;-76
2023/02/12 16:22:18;;;;;;;;;;;;;;;4.46;100.00;97487.03;10521707;28;1971;-79
2023/02/12 16:27:20;;;;;;;;;;;;;;;4.31;100.00;97503.06;10522719;28;1962;-75
2023/02/12 16:32:23;;;;;;;;;;;;;;;4.19;100.00;97500.09;10525709;28;2144;-73
2023/02/12 16:37:25;;;;;;;;;;;;;;;4.12;100.00;97503.72;10527750;28;1968;-74
2023/02/12 16:42:28;;;;;;;;;;;;;;;3.99;100.00;97513.19;10532950;28;2151;-74
2023/02/12 16:47:30;;;;;;;;;;;;;;;3.90;100.00;97524.19;10515771;28;1950;-72
2023/02/12 16:52:33;;;;;;;;;;;;;;;3.83;100.00;97523.28;10519733;28;1990;-71
2023/02/12 16:57:35;;;;;;;;;;;;;;;3.74;100.00;97523.38;10513120;28;1958;-73
2023/02/12 17:02:38;;;;;;;;;;;;;;;3.59;100.00;97530.56;10525539;28;1926;-73
2023/02/12 17:07:40;;;;;;;;;;;;;;;3.55;100.00;97523.97;10542690;28;1723;-74
2023/02/12 17:12:42;;;;;;;;;;;;;;;3.45;100.00;97528.78;10539161;28;1774;-72
2023/02/12 17:17:45;;;;;;;;;;;;;;;3.33;100.00;97530.25;10519865;28;1956;-73
2023/02/12 17:22:47;;;;;;;;;;;;;;;3.29;100.00;97545.72;10515484;28;1987;-75
2023/02/12 17:27:49;;;;;;;;;;;;;;;3.21;100.00;97537.84;10522400;28;2026;-74
2023/02/12 17:32:52;;;;;;;;;;;;;;;3.14;100.00;97532.47;10526666;28;2073;-74
2023/02/12 17:37:54;;;;;;;;;;;;;;;3.07;100.00;97538.69;10531312;28;1906;-73
2023/02/12 17:42:57;;;;;;;;;;;;;;;2.92;100.00;97543.97;10538220;28;1783;-74
2023/02/12 17:47:59;;;;;;;;;;;;;;;2.94;100.00;97550.78;10530905;28;1811;-73
2023/02/12 17:53:02;;;;;;;;;;;;;;;2.89;100.00;97544.34;10535849;28;1975;-72
2023/02/12 17:58:04;;;;;;;;;;;;;;;2.87;100.00;97549.03;10528385;28;2058;-72
2023/02/12 18:03:07;;;;;;;;;;;;;;;2.74;100.00;97547.00;10527011;28;2180;-72
2023/02/12 18:08:09;;;;;;;;;;;;;;;2.65;100.00;97554.19;10528921;28;1986;-73
2023/02/12 18:13:12;;;;;;;;;;;;;;;2.54;100.00;97553.78;10528184;28;2030;-71
2023/02/12 18:18:16;;;;;;;;;;;;;;;2.43;100.00;97561.19;10528279;28;2160;-73
2023/02/12 18:23:19;;;;;;;;;;;;;;;2.36;100.00;97560.28;10524319;28;2057;-72
2023/02/12 18:28:21;;;;;;;;;;;;;;;2.24;100.00;97558.22;10528092;28;2142;-71
2023/02/12 18:33:24;;;;;;;;;;;;;;;2.13;100.00;97560.25;10530601;28;2015;-72
2023/02/12 18:38:26;;;;;;;;;;;;;;;2.07;100.00;97555.66;10525209;28;2005;-73
2023/02/12 18:43:28;;;;;;;;;;;;;;;2.03;100.00;97542.91;10528025;28;2187;-70
2023/02/12 18:48:32;;;;;;;;;;;;;;;1.90;100.00;97543.50;10528414;28;2013;-69
2023/02/12 18:53:34;;;;;;;;;;;;;;;1.85;100.00;97553.84;10533489;28;1843;-73
2023/02/12 18:58:37;;;;;;;;;;;;;;;1.77;100.00;97553.84;10527726;28;1913;-73
2023/02/12 19:03:39;;;;;;;;;;;;;;;1.68;100.00;97544.31;10527189;28;1877;-74
2023/02/12 19:08:41;;;;;;;;;;;;;;;1.65;100.00;97544.63;10531900;28;1787;-73
2023/02/12 19:13:44;;;;;;;;;;;;;;;1.53;100.00;97550.34;10531910;28;1803;-73
2023/02/12 19:18:46;;;;;;;;;;;;;;;1.48;100.00;97542.09;10535402;28;1996;-73
2023/02/12 19:23:49;;;;;;;;;;;;;;;1.45;100.00;97539.78;10539780;28;1796;-73
2023/02/12 19:28:51;;;;;;;;;;;;;;;1.32;100.00;97545.63;10531986;28;1817;-74
2023/02/12 19:33:54;;;;;;;;;;;;;;;1.26;100.00;97550.78;10539934;28;1717;-73
2023/02/12 19:38:56;;;;;;;;;;;;;;;1.27;100.00;97547.13;10541136;28;1905;-74
2023/02/12 19:43:58;;;;;;;;;;;;;;;1.27;100.00;97542.69;10537083;28;1930;-74
2023/02/12 19:49:01;;;;;;;;;;;;;;;1.24;100.00;97544.84;10535427;28;1788;-75
2023/02/12 19:54:04;;;;;;;;;;;;;;;1.23;100.00;97545.84;10526564;28;1772;-77
2023/02/12 19:59:06;;;;;;;;;;;;;;;1.24;100.00;97547.50;10522023;28;1922;-73
2023/02/12 20:04:08;;;;;;;;;;;;;;;1.24;100.00;97532.41;10527745;28;1855;-75
2023/02/12 20:09:11;;;;;;;;;;;;;;;1.29;100.00;97534.56;10536470;28;1763;-76
2023/02/12 20:14:13;;;;;;;;;;;;;;;1.20;100.00;97535.56;10535371;28;1762;-74
2023/02/12 20:19:16;;;;;;;;;;;;;;;1.19;100.00;97539.22;10539922;28;2148;-75
2023/02/12 20:24:18;;;;;;;;;;;;;;;1.10;100.00;97538.44;10534643;28;1967;-75
2023/02/12 20:29:21;;;;;;;;;;;;;;;1.00;100.00;97540.44;10535058;28;1771;-75
2023/02/12 20:34:23;;;;;;;;;;;;;;;1.01;100.00;97542.91;10539794;28;1839;-73
2023/02/12 20:39:26;;;;;;;;;;;;;;;1.02;100.00;97547.25;10522736;28;1969;-73
2023/02/12 20:44:28;;;;;;;;;;;;;;;0.96;100.00;97545.28;10524142;28;1827;-72
2023/02/12 20:49:31;;;;;;;;;;;;;;;0.99;100.00;97544.91;10538051;28;1735;-74
2023/02/12 20:54:33;;;;;;;;;;;;;;;1.07;100.00;97549.34;10535272;28;1799;-74
2023/02/12 20:59:35;;;;;;;;;;;;;;;1.11;100.00;97557.78;10537731;28;2355;-73
2023/02/12 21:04:38;;;;;;;;;;;;;;;1.14;100.00;97562.75;10514190;28;1826;-72
2023/02/12 21:09:40;;;;;;;;;;;;;;;1.07;100.00;97552.81;10545242;28;1908;-73
2023/02/12 21:14:43;;;;;;;;;;;;;;;0.97;100.00;97562.81;10540492;28;1835;-73
2023/02/12 21:19:45;;;;;;;;;;;;;;;0.90;100.00;97563.66;10534591;28;2051;-71
2023/02/12 21:24:47;;;;;;;;;;;;;;;0.81;100.00;97552.22;10533547;28;2026;-72
2023/02/12 21:29:50;;;;;;;;;;;;;;;0.86;100.00;97557.84;10531306;28;1970;-72
2023/02/12 21:34:52;;;;;;;;;;;;;;;0.84;100.00;97557.22;10530070;28;2093;-72
2023/02/12 21:39:54;;;;;;;;;;;;;;;0.91;100.00;97562.66;10527082;28;1973;-72
2023/02/12 21:44:57;;;;;;;;;;;;;;;0.75;100.00;97563.50;10511641;28;1973;-72
2023/02/12 21:49:59;;;;;;;;;;;;;;;0.74;100.00;97564.50;10509601;28;1981;-73
2023/02/12 21:55:02;;;;;;;;;;;;;;;0.53;100.00;97570.31;10525887;28;1966;-73
2023/02/12 22:00:04;;;;;;;;;;;;;;;0.56;100.00;97571.78;10529998;28;2027;-73
2023/02/12 22:05:07;;;;;;;;;;;;;;;0.49;100.00;97572.44;10523724;28;2037;-72
2023/02/12 22:10:10;;;;;;;;;;;;;;;0.63;100.00;97570.13;10528403;28;1974;-71
2023/02/12 22:15:12;;;;;;;;;;;;;;;0.72;100.00;97569.13;10531087;28;2005;-73
2023/02/12 22:20:15;;;;;;;;;;;;;;;0.68;100.00;97567.81;10528752;28;2050;-73
2023/02/12 22:25:17;;;;;;;;;;;;;;;0.83;100.00;97574.09;10529068;28;2062;-72
2023/02/12 22:30:20;;;;;;;;;;;;;;;0.59;100.00;97577.59;10528773;28;1885;-73
2023/02/12 22:35:22;;;;;;;;;;;;;;;0.63;100.00;97570.13;10523040;28;1987;-72
2023/02/12 22:40:24;;;;;;;;;;;;;;;0.59;100.00;97582.06;10531087;28;2029;-74
2023/02/12 22:45:27;;;;;;;;;;;;;;;0.39;100.00;97578.94;10515184;28;2110;-73
2023/02/12 22:50:29;;;;;;;;;;;;;;;0.42;100.00;97578.59;10526110;28;1969;-73
2023/02/12 22:55:32;;;;;;;;;;;;;;;0.32;100.00;97570.81;10526520;28;2033;-74
2023/02/12 23:00:34;;;;;;;;;;;;;;;0.39;100.00;97571.81;10532319;28;2041;-73
2023/02/12 23:05:36;;;;;;;;;;;;;;;0.26;100.00;97571.47;10522771;28;2083;-72
2023/02/12 23:10:39;;;;;;;;;;;;;;;0.33;100.00;97564.53;10523368;28;2053;-73
2023/02/12 23:15:41;;;;;;;;;;;;;;;0.30;100.00;97570.16;10526293;28;2006;-73
2023/02/12 23:20:44;;;;;;;;;;;;;;;0.45;100.00;97573.81;10523961;28;1966;-76
2023/02/12 23:25:46;;;;;;;;;;;;;;;0.29;100.00;97568.50;10522008;28;2129;-76
2023/02/12 23:30:49;;;;;;;;;;;;;;;0.32;100.00;97569.97;10541713;27;1935;-74
2023/02/12 23:35:52;;;;;;;;;;;;;;;0.37;100.00;97571.13;10525891;28;1958;-72
2023/02/12 23:40:54;;;;;;;;;;;;;;;0.39;100.00;97557.75;10526307;28;1990;-72
2023/02/12 23:45:57;;;;;;;;;;;;;;;0.25;100.00;97556.56;10524999;28;1958;-74
2023/02/12 23:51:00;;;;;;;;;;;;;;;0.36;100.00;97555.44;10521869;28;1983;-72
2023/02/12 23:56:02;;;;;;;;;;;;;;;0.32;100.00;97560.25;10529961;28;1986;-72
